Time;durP1;ratioP1;P1;durP2;ratioP2;P2;SDS_P1;SDS_P2;PMS_P1;PMS_P2;Temp;Humidity;BMP_temperature;BMP_pressure;BME280_temperature;BME280_humidity;BME280_pressure;Samples;Min_cycle;Max_cycle;Signal;HPM_P1;HPM_P2
2023/04/01 00:01:49;;;;;;;9.77;7.97;;;;;;;20.81;60.86;98901.03;5023361;28;20533;-52
2023/04/01 00:04:16;;;;;;;14.30;8.52;;;;;;;20.81;60.65;98909.88;5019456;28;20045;-55
2023/04/01 00:06:44;;;;;;;14.30;8.43;;;;;;;20.81;60.75;98903.72;5014446;28;20448;-58
2023/04/01 00:09:11;;;;;;;18.73;8.48;;;;;;;20.81;60.86;98904.53;5026519;28;20049;-54
2023/04/01 00:11:39;;;;;;;14.10;7.50;;;;;;;20.80;60.83;98904.72;5031606;28;20095;-55
2023/04/01 00:14:07;;;;;;;14.73;8.48;;;;;;;20.80;61.03;98904.72;5043101;28;20140;-55
2023/04/01 00:16:34;;;;;;;11.15;8.27;;;;;;;20.80;60.91;98902.03;5026459;28;20079;-57
2023/04/01 00:19:02;;;;;;;17.67;7.80;;;;;;;20.79;61.13;98908.41;5043702;28;20084;-54
2023/04/01 00:21:30;;;;;;;16.50;7.80;;;;;;;20.79;60.96;98908.41;5024663;28;20053;-51
2023/04/01 00:23:57;;;;;;;13.15;7.10;;;;;;;20.78;60.70;98907.59;5042837;28;20136;-52
2023/04/01 00:26:25;;;;;;;13.15;7.97;;;;;;;20.79;61.04;98908.41;5038143;28;20140;-51
2023/04/01 00:28:52;;;;;;;11.68;7.65;;;;;;;20.77;60.95;98900.59;5009829;28;20386;-55
2023/04/01 00:31:20;;;;;;;13.32;8.32;;;;;;;20.78;60.67;98906.78;5021096;28;20539;-54
2023/04/01 00:33:47;;;;;;;12.10;7.63;;;;;;;20.78;60.95;98904.09;5050209;28;20135;-52
2023/04/01 00:36:17;;;;;;;17.52;7.47;;;;;;;20.76;61.11;98893.63;5042225;28;20049;-53
2023/04/01 00:38:45;;;;;;;10.48;7.82;;;;;;;20.76;60.87;98898.09;5027786;28;20562;-53
2023/04/01 00:41:15;;;;;;;12.20;7.43;;;;;;;20.76;60.95;98898.09;5030541;28;20308;-51
2023/04/01 00:43:44;;;;;;;15.50;7.13;;;;;;;20.76;60.84;98898.09;5024279;28;20048;-55
2023/04/01 00:46:12;;;;;;;15.27;7.63;;;;;;;20.75;60.88;98899.97;5046189;28;20136;-57
2023/04/01 00:48:42;;;;;;;13.88;7.55;;;;;;;20.76;60.82;98906.97;5025748;28;20789;-55
2023/04/01 00:51:12;;;;;;;12.40;7.45;;;;;;;20.74;61.05;98896.47;5038547;28;20352;-56
2023/04/01 00:53:43;;;;;;;9.48;7.15;;;;;;;20.75;61.00;98907.97;5017515;28;20063;-55
2023/04/01 00:56:14;;;;;;;12.23;6.82;;;;;;;20.74;61.03;98896.47;5033523;28;20551;-55
2023/04/01 00:58:44;;;;;;;11.10;7.07;;;;;;;20.73;60.76;98899.34;5027957;28;20056;-56
2023/04/01 01:01:11;;;;;;;12.57;7.95;;;;;;;20.74;60.89;98903.66;5046832;28;20144;-52
2023/04/01 01:03:39;;;;;;;10.85;7.10;;;;;;;20.73;60.89;98902.03;5050744;28;20581;-51
2023/04/01 01:06:21;;;;;;;11.85;5.95;;;;;;;20.73;61.14;98910.03;5049186;28;20484;-55
2023/04/01 01:09:12;;;;;;;12.23;7.43;;;;;;;20.72;61.36;98900.38;5031775;28;20061;-54
2023/04/01 01:11:43;;;;;;;8.77;6.63;;;;;;;20.71;60.85;98899.56;5024187;28;20137;-56
2023/04/01 01:14:17;;;;;;;12.05;6.88;;;;;;;20.70;61.30;98903.22;5038578;28;20122;-55
2023/04/01 01:16:47;;;;;;;15.18;7.38;;;;;;;20.70;61.20;98902.41;5043418;28;20053;-54
2023/04/01 01:19:26;;;;;;;12.70;7.45;;;;;;;20.70;61.00;98902.41;5030294;28;20132;-54
2023/04/01 01:22:27;;;;;;;13.15;7.97;;;;;;;20.69;61.03;98904.25;5030992;28;20465;-50
2023/04/01 01:25:13;;;;;;;8.38;6.60;;;;;;;20.70;61.13;98907.75;5045543;28;20059;-51
2023/04/01 01:27:42;;;;;;;8.82;6.57;;;;;;;20.68;60.83;98902.63;5040960;28;20053;-51
2023/04/01 01:30:18;;;;;;;7.93;5.78;;;;;;;20.67;60.80;98898.28;5009653;28;20132;-51
2023/04/01 01:32:53;;;;;;;13.73;7.32;;;;;;;20.67;60.95;98903.66;5024952;28;20506;-51
2023/04/01 01:35:40;;;;;;;9.90;6.70;;;;;;;20.66;61.17;98910.00;5033438;28;20088;-54
2023/04/01 01:38:14;;;;;;;10.68;7.13;;;;;;;20.66;61.20;98907.31;5016739;28;20049;-51
2023/04/01 01:40:44;;;;;;;10.93;6.45;;;;;;;20.66;60.96;98907.31;5001418;28;20742;-55
2023/04/01 01:43:15;;;;;;;14.43;6.82;;;;;;;20.65;60.76;98903.00;5031995;28;20041;-54
2023/04/01 01:45:49;;;;;;;11.95;8.10;;;;;;;20.66;61.28;98919.88;5015321;28;20090;-53
2023/04/01 01:48:17;;;;;;;17.23;6.87;;;;;;;20.66;60.78;98917.19;5034005;28;20049;-53
2023/04/01 01:50:45;;;;;;;9.00;6.45;;;;;;;20.66;61.33;98906.50;5034939;28;21078;-52
2023/04/01 01:53:13;;;;;;;14.13;7.70;;;;;;;20.65;61.14;98912.88;5026506;28;20106;-53
2023/04/01 01:55:45;;;;;;;12.55;7.20;;;;;;;20.63;61.28;98910.41;5023587;28;20076;-52
2023/04/01 01:58:28;;;;;;;11.15;6.03;;;;;;;20.63;60.97;98909.59;5046643;28;20049;-56
2023/04/01 02:00:59;;;;;;;10.88;6.53;;;;;;;20.63;60.91;98921.09;5026883;28;20044;-57
2023/04/01 02:03:29;;;;;;;9.05;5.78;;;;;;;20.61;60.99;98912.44;5049323;28;20072;-56
2023/04/01 02:05:59;;;;;;;9.63;5.65;;;;;;;20.62;61.07;98913.25;5022278;28;20449;-54
2023/04/01 02:08:42;;;;;;;9.32;6.25;;;;;;;20.62;61.01;98923.94;5038804;28;20416;-54
2023/04/01 02:11:11;;;;;;;14.00;6.38;;;;;;;20.62;60.95;98924.78;5003379;28;20053;-52
2023/04/01 02:13:56;;;;;;;10.38;6.15;;;;;;;20.60;60.95;98920.66;5018274;28;20084;-53
2023/04/01 02:16:29;;;;;;;8.95;5.72;;;;;;;20.59;61.09;98922.50;5037060;28;20506;-52
2023/04/01 02:18:58;;;;;;;9.90;6.05;;;;;;;20.58;61.02;98920.88;5027968;28;20404;-53
2023/04/01 02:21:30;;;;;;;8.57;6.25;;;;;;;20.58;60.88;98926.22;5014869;28;20109;-55
2023/04/01 02:23:58;;;;;;;12.70;7.45;;;;;;;20.58;60.95;98923.53;5020334;28;20088;-55
2023/04/01 02:26:26;;;;;;;9.55;5.82;;;;;;;20.57;60.91;98921.88;5027630;28;20087;-52
2023/04/01 02:28:54;;;;;;;18.92;6.90;;;;;;;20.57;60.88;98913.84;5008525;28;20049;-50
2023/04/01 02:31:22;;;;;;;9.70;6.28;;;;;;;20.57;60.88;98918.38;5027683;28;20049;-55
2023/04/01 02:33:49;;;;;;;8.75;5.32;;;;;;;20.57;61.12;98921.88;5041837;28;20115;-54
2023/04/01 02:36:17;;;;;;;10.00;5.60;;;;;;;20.56;61.41;98920.22;5006258;28;20140;-57
2023/04/01 02:38:45;;;;;;;15.20;5.45;;;;;;;20.56;61.37;98925.56;5005793;28;20072;-53
2023/04/01 02:41:12;;;;;;;12.25;6.75;;;;;;;20.57;61.20;98926.38;5025251;28;20464;-55
2023/04/01 02:43:40;;;;;;;16.33;6.45;;;;;;;20.56;60.86;98930.09;4997213;28;20508;-53
2023/04/01 02:46:07;;;;;;;9.95;5.88;;;;;;;20.56;61.19;98928.25;5025713;28;20144;-55
2023/04/01 02:48:34;;;;;;;31.25;6.68;;;;;;;20.55;61.56;98931.13;5032480;28;20076;-55
2023/04/01 02:51:01;;;;;;;11.95;5.95;;;;;;;20.55;61.45;98937.28;5027571;28;20570;-50
2023/04/01 02:53:29;;;;;;;10.98;6.10;;;;;;;20.55;61.27;98936.47;5008129;28;20153;-50
2023/04/01 02:55:56;;;;;;;8.35;5.47;;;;;;;20.55;60.94;98939.16;5044426;28;20521;-53
2023/04/01 02:58:23;;;;;;;37.75;6.05;;;;;;;20.54;60.81;98943.66;5040079;28;20073;-53
2023/04/01 03:00:50;;;;;;;11.70;6.53;;;;;;;20.54;61.13;98940.16;5030169;28;20071;-55
2023/04/01 03:03:18;;;;;;;10.57;5.55;;;;;;;20.54;61.35;98949.00;5044761;28;20077;-56
2023/04/01 03:05:45;;;;;;;11.05;5.90;;;;;;;20.53;60.93;98944.66;5043978;28;20045;-53
2023/04/01 03:08:13;;;;;;;10.35;5.55;;;;;;;20.52;61.28;98948.38;5026862;28;20073;-52
2023/04/01 03:10:40;;;;;;;14.13;6.25;;;;;;;20.52;61.18;98944.88;5020174;28;20456;-52
2023/04/01 03:13:07;;;;;;;11.18;5.20;;;;;;;20.52;61.48;98947.53;5040213;28;20077;-55
2023/04/01 03:15:34;;;;;;;9.13;5.13;;;;;;;20.49;61.38;98951.44;5028162;28;20049;-52
2023/04/01 03:18:02;;;;;;;7.72;5.28;;;;;;;20.50;61.53;98957.63;5049372;28;20152;-55
2023/04/01 03:20:30;;;;;;;18.05;5.82;;;;;;;20.48;61.36;98955.94;5045654;28;20076;-55
2023/04/01 03:22:57;;;;;;;12.38;5.38;;;;;;;20.50;61.00;98966.47;5025376;28;20073;-54
2023/04/01 03:25:24;;;;;;;8.50;4.93;;;;;;;20.50;61.00;98969.13;5047026;28;20049;-55
2023/04/01 03:27:52;;;;;;;9.57;5.40;;;;;;;20.50;61.03;98971.81;5051924;28;20048;-58
2023/04/01 03:30:19;;;;;;;8.23;5.47;;;;;;;20.47;61.34;98972.16;5032783;28;20045;-52
2023/04/01 03:32:46;;;;;;;14.45;5.40;;;;;;;20.47;60.88;98978.34;5025484;28;20049;-55
2023/04/01 03:35:14;;;;;;;8.77;5.28;;;;;;;20.48;61.24;98980.00;5049115;28;20676;-52
2023/04/01 03:37:41;;;;;;;10.85;5.45;;;;;;;20.48;61.18;98981.84;5048432;28;20536;-54
2023/04/01 03:40:09;;;;;;;7.32;5.10;;;;;;;20.48;61.14;98980.00;5028027;28;20080;-57
2023/04/01 03:42:37;;;;;;;9.98;5.20;;;;;;;20.51;61.32;98986.81;5045600;28;20053;-51
2023/04/01 03:45:04;;;;;;;8.82;4.57;;;;;;;20.48;61.21;98989.88;5047998;28;20053;-52
2023/04/01 03:47:32;;;;;;;6.82;5.32;;;;;;;20.48;60.93;98998.72;5048484;28;20041;-52
2023/04/01 03:49:59;;;;;;;12.90;5.50;;;;;;;20.51;61.20;98991.34;5027826;28;20072;-55
2023/04/01 03:52:26;;;;;;;10.18;4.78;;;;;;;20.50;61.26;98997.72;5042319;23;20081;-61
2023/04/01 03:54:54;;;;;;;11.07;5.50;;;;;;;20.50;60.71;99006.56;5037932;28;20069;-62
2023/04/01 03:57:21;;;;;;;7.95;5.22;;;;;;;20.50;60.84;99006.56;5025417;28;20501;-61
2023/04/01 03:59:48;;;;;;;7.78;4.65;;;;;;;20.51;61.19;99010.06;5024774;28;20068;-62
2023/04/01 04:02:15;;;;;;;11.05;5.13;;;;;;;20.51;60.82;99005.53;5036098;28;20119;-61
2023/04/01 04:04:43;;;;;;;6.85;4.38;;;;;;;20.52;61.09;99009.84;5028719;28;20317;-61
2023/04/01 04:07:10;;;;;;;7.78;4.70;;;;;;;20.51;60.84;99013.56;5016783;28;20056;-61
2023/04/01 04:09:37;;;;;;;7.43;4.85;;;;;;;20.52;60.75;99019.72;4999699;28;20129;-60
2023/04/01 04:12:05;;;;;;;6.57;4.85;;;;;;;20.52;60.97;99022.41;5028275;28;20045;-62
2023/04/01 04:14:32;;;;;;;11.98;4.97;;;;;;;20.51;60.90;99018.91;5033352;28;20050;-62
2023/04/01 04:16:59;;;;;;;8.30;5.03;;;;;;;20.51;61.13;99021.56;5037972;28;20045;-61
2023/04/01 04:19:26;;;;;;;10.65;5.55;;;;;;;20.50;60.71;99022.59;5037941;28;20046;-62
2023/04/01 04:21:54;;;;;;;9.18;4.85;;;;;;;20.52;61.30;99027.75;5036081;28;20514;-61
2023/04/01 04:24:21;;;;;;;10.52;5.13;;;;;;;20.50;61.29;99030.63;5012958;28;20560;-61
2023/04/01 04:26:48;;;;;;;6.97;4.53;;;;;;;20.52;60.67;99031.25;5022568;28;20063;-62
2023/04/01 04:29:15;;;;;;;6.32;3.95;;;;;;;20.51;60.79;99026.91;5016473;28;20060;-61
2023/04/01 04:31:43;;;;;;;11.32;4.03;;;;;;;20.52;61.02;99036.59;5021120;28;20238;-62
2023/04/01 04:34:10;;;;;;;7.70;4.55;;;;;;;20.52;60.72;99036.59;5020906;28;20060;-61
2023/04/01 04:36:37;;;;;;;12.15;5.53;;;;;;;20.51;60.66;99045.63;5023962;28;20052;-61
2023/04/01 04:39:05;;;;;;;5.30;3.92;;;;;;;20.51;60.97;99042.97;5023922;28;20567;-61
2023/04/01 04:41:32;;;;;;;9.15;4.60;;;;;;;20.52;60.82;99046.44;5021085;28;20046;-61
2023/04/01 04:44:01;;;;;;;10.00;4.63;;;;;;;20.52;60.72;99046.44;5022943;28;20080;-61
2023/04/01 04:46:28;;;;;;;13.07;4.90;;;;;;;20.53;60.86;99050.78;5015188;28;20057;-60
2023/04/01 04:48:55;;;;;;;12.48;4.68;;;;;;;20.53;60.70;99056.13;5018836;28;20046;-63
2023/04/01 04:51:23;;;;;;;7.95;4.50;;;;;;;20.53;61.02;99053.44;5018412;28;20154;-62
2023/04/01 04:53:50;;;;;;;8.80;4.95;;;;;;;20.52;60.81;99057.16;5018349;28;20072;-61
2023/04/01 04:56:20;;;;;;;6.05;4.32;;;;;;;20.52;60.80;99060.66;5031481;28;20516;-62
2023/04/01 04:58:48;;;;;;;5.45;4.18;;;;;;;20.52;60.86;99063.31;5021816;28;20041;-61
2023/04/01 05:01:16;;;;;;;8.35;4.35;;;;;;;20.53;61.07;99056.13;5022705;28;20141;-62
2023/04/01 05:03:43;;;;;;;5.32;3.97;;;;;;;20.52;61.06;99071.34;5019448;28;20454;-62
2023/04/01 05:06:12;;;;;;;7.97;3.78;;;;;;;20.52;60.97;99065.16;5025237;28;20328;-61
2023/04/01 05:08:41;;;;;;;7.80;4.47;;;;;;;20.52;61.11;99074.00;5018165;28;20540;-61
2023/04/01 05:11:14;;;;;;;8.50;4.20;;;;;;;20.52;60.74;99071.34;5029348;28;20049;-62
2023/04/01 05:13:42;;;;;;;7.40;3.67;;;;;;;20.52;60.85;99076.69;5025935;28;20066;-62
2023/04/01 05:16:14;;;;;;;6.75;4.32;;;;;;;20.54;60.86;99081.84;5023835;28;20586;-60
2023/04/01 05:18:42;;;;;;;7.43;3.75;;;;;;;20.54;60.54;99080.00;5023763;28;20053;-62
2023/04/01 05:21:11;;;;;;;7.85;4.63;;;;;;;20.54;60.72;99080.00;5024880;28;20056;-61
2023/04/01 05:23:38;;;;;;;9.60;4.30;;;;;;;20.54;60.84;99087.22;5020348;28;20409;-62
2023/04/01 05:26:07;;;;;;;12.68;4.15;;;;;;;20.54;60.69;99085.34;5038026;28;20140;-61
2023/04/01 05:28:34;;;;;;;14.68;4.40;;;;;;;20.55;60.61;99089.69;5028953;28;20067;-60
2023/04/01 05:31:02;;;;;;;15.30;4.13;;;;;;;20.54;60.91;99092.56;5036893;28;20469;-61
2023/04/01 05:33:30;;;;;;;7.50;4.20;;;;;;;20.54;60.91;99089.88;5002628;28;20050;-62
2023/04/01 05:36:06;;;;;;;6.43;3.65;;;;;;;20.55;60.79;99099.56;5027837;28;20164;-61
2023/04/01 05:38:33;;;;;;;7.22;4.30;;;;;;;20.55;61.07;99095.03;5026766;28;20573;-61
2023/04/01 05:41:02;;;;;;;9.00;4.60;;;;;;;20.56;61.01;99103.88;5038212;28;20080;-62
2023/04/01 05:43:30;;;;;;;7.70;4.50;;;;;;;20.56;60.79;99099.34;5025907;28;20084;-62
2023/04/01 05:45:57;;;;;;;8.43;4.32;;;;;;;20.57;60.88;99109.00;5026354;28;20049;-62
2023/04/01 05:48:25;;;;;;;16.45;4.93;;;;;;;20.56;60.60;99104.69;5041436;28;20141;-62
2023/04/01 05:50:52;;;;;;;8.80;4.50;;;;;;;20.56;61.12;99112.72;5021364;28;20072;-61
2023/04/01 05:53:19;;;;;;;7.88;3.72;;;;;;;20.56;60.70;99111.88;5022270;28;20534;-62
2023/04/01 05:55:46;;;;;;;13.93;4.20;;;;;;;20.56;60.94;99112.72;5027063;28;20494;-61
2023/04/01 05:58:13;;;;;;;8.20;4.50;;;;;;;20.57;60.53;99116.22;5023415;28;20077;-61
2023/04/01 06:00:41;;;;;;;8.75;4.30;;;;;;;20.57;60.61;99114.34;5023410;28;20148;-62
2023/04/01 06:03:08;;;;;;;7.28;4.45;;;;;;;20.57;60.65;99113.53;5022342;28;20080;-62
